Maplewood, Minnesota
Current Conditions -  °F | °C
As of 5:53 AM on Friday 19 Dec 2014 (Local Time) from KSTP Reporting Station
Overcast Overcast  
Wind Chill: 12°   Ceiling: 6000
Heat Index: 22°   Visibility: 7mi
Dew Point: 18°   Wind: 9mph
Humidity: 85%   Direction: 150°SSE
Pressure: 30.27"   Gusts: NA
Location:  45.01°N, 93.02°W
Report Text: KSTP 191153Z 15008KT 7SM OVC060 M06/M08 A3027 RMK AO2 SLP260 T10561078 11050 21061 56007
Loading
Personal Weather Stations






























Interactive Weather Map New forecast layout! Learn more

10-Day Weather Forecast

Advertisements
Track Severe Weather on mobile